createdAt,value
2018-09-20T00:00:38.812Z,84.12
2018-09-20T00:01:39.034Z,84.28
2018-09-20T00:02:39.888Z,84.25
2018-09-20T00:03:40.037Z,84.17
2018-09-20T00:04:40.807Z,83.99
2018-09-20T00:05:41.281Z,84.15
2018-09-20T00:06:42.235Z,84.16
2018-09-20T00:07:43.094Z,84.14
2018-09-20T00:08:43.508Z,84.22
2018-09-20T00:09:43.752Z,84.40
2018-09-20T00:10:44.149Z,84.49
2018-09-20T00:11:44.164Z,84.76
2018-09-20T00:12:44.476Z,84.61
2018-09-20T00:13:44.674Z,84.54
2018-09-20T00:14:44.891Z,84.15
2018-09-20T00:15:45.812Z,84.10
2018-09-20T00:16:46.569Z,84.33
2018-09-20T00:17:46.759Z,84.31
2018-09-20T00:18:47.306Z,84.07
2018-09-20T00:19:47.531Z,84.03
2018-09-20T00:20:47.761Z,83.97
2018-09-20T00:21:48.267Z,84.04
2018-09-20T00:22:49.196Z,84.60
2018-09-20T00:23:49.708Z,85.11
2018-09-20T00:24:50.574Z,85.04
2018-09-20T00:25:50.899Z,85.51
2018-09-20T00:26:51.148Z,85.62
2018-09-20T00:27:51.315Z,85.90
2018-09-20T00:28:51.770Z,85.90
2018-09-20T00:28:59.828Z,86.32
2018-09-20T00:30:01.140Z,86.33
2018-09-20T00:31:01.382Z,86.62
2018-09-20T00:32:01.657Z,86.72
2018-09-20T00:33:01.959Z,86.90
2018-09-20T00:34:02.938Z,87.01
2018-09-20T00:35:03.930Z,86.97
2018-09-20T00:36:04.786Z,87.34
2018-09-20T00:37:05.106Z,86.98
2018-09-20T00:38:05.352Z,87.58
2018-09-20T00:39:05.582Z,87.35
2018-09-20T00:40:06.015Z,87.52
2018-09-20T00:41:06.823Z,87.66
2018-09-20T00:42:07.592Z,87.72
2018-09-20T00:43:07.869Z,87.59
2018-09-20T00:44:08.841Z,87.71
2018-09-20T00:45:09.369Z,87.92
2018-09-20T00:46:10.098Z,87.62
2018-09-20T00:47:10.973Z,87.55
2018-09-20T00:48:11.717Z,87.39
2018-09-20T00:49:11.989Z,87.62
2018-09-20T00:50:12.872Z,87.44
2018-09-20T00:51:13.233Z,87.14
2018-09-20T00:52:13.419Z,86.91
2018-09-20T00:53:13.428Z,86.74
2018-09-20T00:54:13.698Z,86.97
2018-09-20T00:55:14.028Z,86.88
2018-09-20T00:56:14.366Z,86.70
2018-09-20T00:57:14.928Z,86.84
2018-09-20T00:58:15.642Z,86.81
2018-09-20T00:59:15.960Z,86.73
2018-09-20T01:00:16.157Z,86.59
2018-09-20T01:01:16.926Z,86.59
2018-09-20T01:02:17.840Z,86.71
2018-09-20T01:03:18.143Z,87.24
2018-09-20T01:04:18.379Z,87.40
2018-09-20T01:05:19.182Z,87.38
2018-09-20T01:06:19.930Z,87.88
2018-09-20T01:07:20.135Z,87.77
2018-09-20T01:08:20.355Z,87.56
2018-09-20T01:09:20.549Z,87.62
2018-09-20T01:10:20.921Z,88.04
2018-09-20T01:11:21.341Z,88.37
2018-09-20T01:12:22.257Z,88.15
2018-09-20T01:13:22.511Z,87.92
2018-09-20T01:14:22.773Z,88.21
2018-09-20T01:14:32.091Z,88.19
2018-09-20T01:15:31.864Z,88.23
2018-09-20T01:16:32.118Z,88.37
2018-09-20T01:17:32.486Z,88.42
2018-09-20T01:18:32.750Z,88.46
2018-09-20T01:19:33.020Z,88.20
2018-09-20T01:20:33.208Z,88.17
2018-09-20T01:21:33.424Z,88.10
2018-09-20T01:22:33.646Z,88.21
2018-09-20T01:23:33.889Z,88.47
2018-09-20T01:24:34.129Z,88.15
2018-09-20T01:25:35.037Z,88.33
2018-09-20T01:26:35.283Z,88.62
2018-09-20T01:27:36.145Z,88.51
2018-09-20T01:28:36.560Z,88.53
2018-09-20T01:29:36.571Z,88.59
2018-09-20T01:30:37.021Z,88.65
2018-09-20T01:31:37.323Z,88.28
2018-09-20T01:32:37.858Z,88.09
2018-09-20T01:33:38.614Z,88.13
2018-09-20T01:34:38.891Z,88.58
2018-09-20T01:35:39.555Z,88.76
2018-09-20T01:36:40.319Z,88.46
2018-09-20T01:37:41.110Z,88.29
2018-09-20T01:38:41.740Z,88.35
2018-09-20T01:39:42.546Z,87.98
2018-09-20T01:40:43.518Z,88.16
2018-09-20T01:41:44.422Z,88.09
2018-09-20T01:42:44.531Z,88.17
2018-09-20T01:43:44.940Z,88.25
2018-09-20T01:44:45.650Z,88.30
2018-09-20T01:45:45.934Z,88.67
2018-09-20T01:46:46.688Z,88.78
2018-09-20T01:47:47.677Z,88.82
2018-09-20T01:48:48.640Z,88.93
2018-09-20T01:49:49.498Z,89.08
2018-09-20T01:50:49.700Z,89.23
2018-09-20T01:51:50.142Z,89.32
2018-09-20T01:52:50.472Z,89.52
2018-09-20T01:53:50.624Z,89.42
2018-09-20T01:54:51.033Z,89.68
2018-09-20T01:55:51.344Z,89.52
2018-09-20T01:56:52.141Z,89.46
2018-09-20T01:57:53.111Z,89.04
2018-09-20T01:58:02.076Z,89.46
2018-09-20T01:59:02.284Z,89.46
2018-09-20T02:00:02.682Z,89.46
2018-09-20T02:01:03.059Z,89.27
2018-09-20T02:02:03.777Z,89.34
2018-09-20T02:03:04.207Z,89.56
2018-09-20T02:04:04.483Z,89.92
2018-09-20T02:05:04.962Z,89.68
2018-09-20T02:06:05.242Z,89.88
2018-09-20T02:07:06.001Z,90.38
2018-09-20T02:08:06.735Z,90.14
2018-09-20T02:09:07.005Z,90.44
2018-09-20T02:10:07.544Z,90.36
2018-09-20T02:11:07.729Z,90.19
2018-09-20T02:12:08.012Z,90.25
2018-09-20T02:13:08.353Z,90.02
2018-09-20T02:14:08.670Z,89.93
2018-09-20T02:15:08.873Z,89.76
2018-09-20T02:16:09.837Z,89.87
2018-09-20T02:17:10.122Z,89.75
2018-09-20T02:18:10.321Z,89.97
2018-09-20T02:19:09.805Z,89.89
2018-09-20T02:20:11.638Z,90.31
2018-09-20T02:21:12.058Z,90.34
2018-09-20T02:22:12.832Z,90.20
2018-09-20T02:23:13.786Z,90.41
2018-09-20T02:24:14.168Z,90.49
2018-09-20T02:25:14.411Z,90.58
2018-09-20T02:26:14.801Z,90.56
2018-09-20T02:27:15.111Z,90.65
2018-09-20T02:28:16.041Z,90.81
2018-09-20T02:29:16.304Z,90.83
2018-09-20T02:30:16.552Z,90.94
2018-09-20T02:31:17.081Z,91.05
2018-09-20T02:32:17.285Z,91.48
2018-09-20T02:33:17.497Z,90.85
2018-09-20T02:34:18.249Z,91.18
2018-09-20T02:35:18.773Z,91.10
2018-09-20T02:36:19.581Z,91.22
2018-09-20T02:37:20.444Z,90.97
2018-09-20T02:38:20.778Z,90.75
2018-09-20T02:39:21.212Z,90.92
2018-09-20T02:40:21.575Z,90.80
2018-09-20T02:41:21.581Z,90.77
2018-09-20T02:42:21.885Z,90.67
2018-09-20T02:43:22.125Z,90.93
2018-09-20T02:43:30.519Z,90.56
2018-09-20T02:44:31.725Z,90.54
2018-09-20T02:45:30.701Z,90.59
2018-09-20T02:46:31.974Z,91.19
2018-09-20T02:47:32.743Z,91.70
2018-09-20T02:48:33.100Z,91.49
2018-09-20T02:49:33.888Z,92.03
2018-09-20T02:50:34.101Z,91.70
2018-09-20T02:51:34.388Z,91.45
2018-09-20T02:52:34.555Z,91.40
2018-09-20T02:53:35.019Z,90.77
2018-09-20T02:54:35.695Z,91.04
2018-09-20T02:55:35.914Z,91.32
2018-09-20T02:56:36.105Z,91.51
2018-09-20T02:57:36.329Z,91.64
2018-09-20T02:58:36.543Z,91.49
2018-09-20T02:59:36.700Z,91.88
2018-09-20T03:00:36.971Z,91.86
2018-09-20T03:01:37.234Z,91.61
2018-09-20T03:02:37.423Z,91.36
2018-09-20T03:03:37.629Z,91.66
2018-09-20T03:04:37.895Z,91.91
2018-09-20T03:05:38.285Z,91.76
2018-09-20T03:06:38.475Z,91.83
2018-09-20T03:07:38.969Z,92.42
2018-09-20T03:08:38.359Z,92.21
2018-09-20T03:09:39.684Z,91.99
2018-09-20T03:10:39.933Z,91.94
2018-09-20T03:11:40.238Z,92.21
2018-09-20T03:12:40.367Z,92.41
2018-09-20T03:13:41.125Z,93.02
2018-09-20T03:14:41.459Z,92.63
2018-09-20T03:15:41.625Z,92.63
2018-09-20T03:16:41.846Z,92.39
2018-09-20T03:17:42.050Z,91.97
2018-09-20T03:18:41.784Z,92.04
2018-09-20T03:19:43.183Z,91.55
2018-09-20T03:20:43.478Z,91.41
2018-09-20T03:21:43.765Z,91.53
2018-09-20T03:22:43.960Z,91.57
2018-09-20T03:23:44.216Z,91.36
2018-09-20T03:24:44.378Z,91.33
2018-09-20T03:25:44.601Z,91.21
2018-09-20T03:26:45.124Z,90.96
2018-09-20T03:27:45.304Z,91.49
2018-09-20T03:27:53.668Z,91.80
2018-09-20T03:28:55.154Z,91.75
2018-09-20T03:29:55.331Z,91.84
2018-09-20T03:30:55.608Z,92.18
2018-09-20T03:31:54.682Z,92.33
2018-09-20T03:32:56.059Z,92.08
2018-09-20T03:33:56.438Z,92.29
2018-09-20T03:34:56.652Z,92.61
2018-09-20T03:35:56.871Z,92.49
2018-09-20T03:36:57.084Z,92.68
2018-09-20T03:37:57.326Z,92.53
2018-09-20T03:38:57.786Z,92.73
2018-09-20T03:39:57.952Z,93.15
2018-09-20T03:40:58.123Z,92.83
2018-09-20T03:41:58.559Z,93.11
2018-09-20T03:42:58.690Z,93.17
2018-09-20T03:43:58.923Z,93.20
2018-09-20T03:44:59.178Z,93.27
2018-09-20T03:45:59.385Z,93.36
2018-09-20T03:47:00.026Z,93.01
2018-09-20T03:48:00.273Z,92.98
2018-09-20T03:49:00.504Z,92.84
2018-09-20T03:50:00.738Z,92.97
2018-09-20T03:51:01.122Z,93.00
2018-09-20T03:52:00.336Z,93.24
2018-09-20T03:53:01.646Z,93.23
2018-09-20T03:54:01.849Z,93.22
2018-09-20T03:55:02.107Z,93.04
2018-09-20T03:56:02.899Z,93.00
2018-09-20T03:57:03.111Z,93.22
2018-09-20T03:58:03.329Z,93.14
2018-09-20T03:59:03.591Z,93.20
2018-09-20T04:00:04.116Z,92.87
2018-09-20T04:01:04.316Z,92.75
2018-09-20T04:02:04.854Z,92.72
2018-09-20T04:03:05.192Z,92.76
2018-09-20T04:04:05.338Z,92.90
2018-09-20T04:05:05.563Z,92.83
2018-09-20T04:06:06.009Z,92.51
2018-09-20T04:07:06.460Z,92.63
2018-09-20T04:08:06.669Z,92.67
2018-09-20T04:09:06.972Z,92.72
2018-09-20T04:10:07.602Z,92.80
2018-09-20T04:11:07.783Z,92.85
2018-09-20T04:12:07.932Z,93.19
2018-09-20T04:12:15.992Z,92.99
2018-09-20T04:13:16.540Z,92.99
2018-09-20T04:14:17.886Z,92.69
2018-09-20T04:15:18.079Z,92.71
2018-09-20T04:16:18.328Z,92.44
2018-09-20T04:17:18.526Z,92.81
2018-09-20T04:18:18.796Z,92.86
2018-09-20T04:19:17.963Z,93.18
2018-09-20T04:20:19.231Z,93.37
2018-09-20T04:21:19.504Z,93.23
2018-09-20T04:22:19.731Z,93.49
2018-09-20T04:23:19.979Z,93.64
2018-09-20T04:24:20.212Z,93.36
2018-09-20T04:25:20.456Z,93.04
2018-09-20T04:26:20.728Z,93.79
2018-09-20T04:27:20.901Z,93.96
2018-09-20T04:28:21.252Z,93.96
2018-09-20T04:29:21.539Z,94.13
2018-09-20T04:30:21.746Z,93.96
2018-09-20T04:31:21.967Z,93.73
2018-09-20T04:32:22.175Z,93.70
2018-09-20T04:33:22.305Z,93.93
2018-09-20T04:34:22.500Z,93.82
2018-09-20T04:35:22.684Z,93.84
2018-09-20T04:36:23.205Z,93.38
2018-09-20T04:37:23.466Z,93.50
2018-09-20T04:38:23.692Z,93.06
2018-09-20T04:39:23.017Z,93.31
2018-09-20T04:40:24.162Z,93.62
2018-09-20T04:41:24.462Z,93.33
2018-09-20T04:42:23.963Z,93.17
2018-09-20T04:43:25.280Z,93.15
2018-09-20T04:44:25.534Z,93.21
2018-09-20T04:45:25.768Z,92.77
2018-09-20T04:46:25.961Z,92.72
2018-09-20T04:47:26.176Z,92.68
2018-09-20T04:48:26.602Z,92.64
2018-09-20T04:49:26.842Z,92.31
2018-09-20T04:50:26.970Z,92.38
2018-09-20T04:51:27.120Z,92.12
2018-09-20T04:52:27.281Z,92.28
2018-09-20T04:53:27.708Z,92.09
2018-09-20T04:54:26.815Z,92.62
2018-09-20T04:55:28.026Z,92.71
2018-09-20T04:56:28.288Z,92.51
2018-09-20T04:57:28.633Z,92.69
2018-09-20T04:58:28.907Z,92.29
2018-09-20T04:58:37.340Z,92.47
2018-09-20T04:59:38.906Z,92.56
2018-09-20T05:00:39.481Z,92.84
2018-09-20T05:01:39.697Z,92.94
2018-09-20T05:02:39.867Z,92.95
2018-09-20T05:03:40.319Z,92.62
2018-09-20T05:04:40.717Z,92.75
2018-09-20T05:05:40.906Z,92.42
2018-09-20T05:06:41.515Z,92.23
2018-09-20T05:07:41.672Z,92.37
2018-09-20T05:08:41.850Z,92.26
2018-09-20T05:09:42.133Z,92.01
2018-09-20T05:10:42.403Z,92.15
2018-09-20T05:11:42.625Z,91.79
2018-09-20T05:12:42.794Z,91.85
2018-09-20T05:13:42.945Z,91.60
2018-09-20T05:14:43.180Z,91.72
2018-09-20T05:15:43.376Z,92.01
2018-09-20T05:16:43.655Z,92.33
2018-09-20T05:17:44.101Z,92.29
2018-09-20T05:18:44.272Z,91.91
2018-09-20T05:19:44.286Z,91.85
2018-09-20T05:20:44.654Z,92.41
2018-09-20T05:21:44.874Z,92.50
2018-09-20T05:22:45.140Z,92.21
2018-09-20T05:23:45.454Z,92.23
2018-09-20T05:24:45.611Z,91.60
2018-09-20T05:25:45.861Z,91.43
2018-09-20T05:26:46.122Z,91.96
2018-09-20T05:27:46.385Z,92.15
2018-09-20T05:28:46.587Z,92.20
2018-09-20T05:29:46.742Z,92.39
2018-09-20T05:30:46.933Z,92.19
2018-09-20T05:31:46.142Z,92.15
2018-09-20T05:32:47.311Z,92.22
2018-09-20T05:33:47.542Z,92.09
2018-09-20T05:34:47.787Z,92.29
2018-09-20T05:35:48.007Z,92.24
2018-09-20T05:36:48.730Z,91.79
2018-09-20T05:37:48.928Z,92.00
2018-09-20T05:38:49.152Z,92.06
2018-09-20T05:39:49.325Z,92.04
2018-09-20T05:40:49.507Z,91.98
2018-09-20T05:41:50.026Z,91.61
2018-09-20T05:41:58.099Z,91.41
2018-09-20T05:42:59.257Z,91.52
2018-09-20T05:43:59.471Z,91.96
2018-09-20T05:44:59.662Z,91.62
2018-09-20T05:45:59.875Z,91.61
2018-09-20T05:47:00.263Z,91.14
2018-09-20T05:48:00.742Z,90.92
2018-09-20T05:49:00.977Z,91.08
2018-09-20T05:50:01.156Z,91.86
2018-09-20T05:51:01.383Z,91.72
2018-09-20T05:52:01.662Z,91.16
2018-09-20T05:53:02.102Z,91.08
2018-09-20T05:54:02.729Z,90.91
2018-09-20T05:55:03.024Z,91.39
2018-09-20T05:56:03.321Z,91.69
2018-09-20T05:57:03.528Z,91.67
2018-09-20T05:58:03.749Z,91.84
2018-09-20T05:59:03.953Z,91.38
2018-09-20T06:00:04.143Z,91.78
2018-09-20T06:01:04.431Z,91.51
2018-09-20T06:02:04.787Z,91.23
2018-09-20T06:03:04.959Z,90.86
2018-09-20T06:04:05.256Z,91.05
2018-09-20T06:05:05.595Z,90.37
2018-09-20T06:06:06.279Z,90.68
2018-09-20T06:07:06.628Z,90.89
2018-09-20T06:08:06.810Z,90.71
2018-09-20T06:09:07.763Z,90.92
2018-09-20T06:10:07.951Z,91.24
2018-09-20T06:11:08.196Z,90.73
2018-09-20T06:12:08.459Z,91.01
2018-09-20T06:13:08.721Z,90.97
2018-09-20T06:14:08.154Z,90.50
2018-09-20T06:15:10.042Z,90.58
2018-09-20T06:16:10.324Z,90.50
2018-09-20T06:17:10.684Z,90.59
2018-09-20T06:18:10.889Z,90.99
2018-09-20T06:19:11.128Z,90.76
2018-09-20T06:20:11.283Z,90.66
2018-09-20T06:21:11.500Z,90.64
2018-09-20T06:22:11.678Z,90.39
2018-09-20T06:23:12.165Z,90.69
2018-09-20T06:24:12.659Z,90.26
2018-09-20T06:25:12.871Z,90.01
2018-09-20T06:26:13.111Z,90.30
2018-09-20T06:26:21.803Z,90.03
2018-09-20T06:27:23.348Z,90.08
2018-09-20T06:28:23.544Z,90.25
2018-09-20T06:29:24.332Z,90.38
2018-09-20T06:30:24.495Z,90.43
2018-09-20T06:31:24.891Z,90.12
2018-09-20T06:32:25.328Z,90.02
2018-09-20T06:33:25.720Z,90.26
2018-09-20T06:34:26.176Z,90.36
2018-09-20T06:35:26.560Z,90.12
2018-09-20T06:36:27.239Z,90.21
2018-09-20T06:37:27.515Z,89.94
2018-09-20T06:38:27.584Z,89.89
2018-09-20T06:39:28.155Z,89.53
2018-09-20T06:40:29.387Z,89.60
2018-09-20T06:41:27.770Z,89.94
2018-09-20T06:42:29.338Z,89.99
2018-09-20T06:43:29.974Z,89.81
2018-09-20T06:44:30.267Z,90.08
2018-09-20T06:45:30.453Z,89.85
2018-09-20T06:46:30.636Z,89.69
2018-09-20T06:47:31.056Z,89.20
2018-09-20T06:48:31.454Z,89.80
2018-09-20T06:49:30.728Z,89.31
2018-09-20T06:50:32.076Z,88.93
2018-09-20T06:51:31.328Z,89.17
2018-09-20T06:52:32.962Z,89.63
2018-09-20T06:53:33.345Z,89.20
2018-09-20T06:54:33.755Z,88.85
2018-09-20T06:55:34.268Z,89.25
2018-09-20T06:56:34.572Z,88.82
2018-09-20T06:57:34.217Z,89.04
2018-09-20T06:58:35.397Z,89.33
2018-09-20T06:59:35.811Z,89.41
2018-09-20T07:00:35.943Z,89.30
2018-09-20T07:01:36.169Z,88.85
2018-09-20T07:02:36.358Z,88.62
2018-09-20T07:03:36.820Z,88.62
2018-09-20T07:04:37.134Z,88.87
2018-09-20T07:05:37.354Z,88.67
2018-09-20T07:06:37.658Z,88.84
2018-09-20T07:07:37.940Z,88.26
2018-09-20T07:08:38.147Z,88.06
2018-09-20T07:09:38.645Z,88.19
2018-09-20T07:10:38.829Z,87.81
2018-09-20T07:11:39.119Z,87.77
2018-09-20T07:12:39.449Z,87.85
2018-09-20T07:13:40.328Z,87.48
2018-09-20T07:13:48.776Z,88.21
2018-09-20T07:14:49.077Z,88.02
2018-09-20T07:15:50.795Z,87.65
2018-09-20T07:16:51.155Z,87.38
2018-09-20T07:17:51.379Z,87.39
2018-09-20T07:18:51.657Z,87.61
2018-09-20T07:19:51.828Z,87.50
2018-09-20T07:20:52.098Z,86.59
2018-09-20T07:21:52.377Z,86.44
2018-09-20T07:22:52.719Z,86.64
2018-09-20T07:23:53.101Z,86.65
2018-09-20T07:24:53.256Z,86.57
2018-09-20T07:25:53.555Z,86.46
2018-09-20T07:26:53.989Z,86.37
2018-09-20T07:27:54.375Z,86.87
2018-09-20T07:28:54.539Z,87.04
2018-09-20T07:29:54.903Z,85.99
2018-09-20T07:30:55.314Z,86.51
2018-09-20T07:31:55.860Z,85.82
2018-09-20T07:32:56.119Z,85.18
2018-09-20T07:33:57.123Z,84.30
2018-09-20T07:34:57.298Z,84.23
2018-09-20T07:35:57.636Z,83.58
2018-09-20T07:36:58.004Z,82.23
2018-09-20T07:37:58.232Z,80.13
2018-09-20T07:38:58.569Z,78.06
2018-09-20T07:39:57.823Z,75.89
2018-09-20T07:40:59.050Z,73.17
2018-09-20T07:41:59.304Z,71.06
2018-09-20T07:42:59.478Z,69.69
2018-09-20T07:43:59.707Z,67.69
2018-09-20T07:44:59.911Z,66.55
2018-09-20T07:46:00.151Z,65.35
2018-09-20T07:47:00.712Z,64.82
2018-09-20T07:48:01.219Z,63.70
2018-09-20T07:49:01.433Z,62.72
2018-09-20T07:50:01.874Z,62.10
2018-09-20T07:51:02.096Z,61.46
2018-09-20T07:52:02.307Z,60.69
2018-09-20T07:53:02.953Z,60.35
2018-09-20T07:54:03.319Z,59.82
2018-09-20T07:55:03.997Z,59.17
2018-09-20T07:56:04.500Z,58.80
2018-09-20T07:57:04.677Z,58.81
2018-09-20T07:58:04.934Z,58.64
2018-09-20T07:59:05.119Z,57.71
2018-09-20T07:59:14.117Z,56.53
2018-09-20T08:00:14.659Z,56.49
2018-09-20T08:01:14.896Z,55.86
2018-09-20T08:02:15.063Z,55.71
2018-09-20T08:03:15.424Z,55.42
2018-09-20T08:04:15.802Z,55.12
2018-09-20T08:05:16.117Z,54.92
2018-09-20T08:06:16.296Z,54.53
2018-09-20T08:07:16.590Z,54.01
2018-09-20T08:08:15.795Z,53.56
2018-09-20T08:09:17.054Z,53.20
2018-09-20T08:10:17.258Z,53.95
2018-09-20T08:11:17.495Z,53.29
2018-09-20T08:12:17.656Z,53.23
2018-09-20T08:13:17.777Z,52.14
2018-09-20T08:14:18.081Z,51.77
2018-09-20T08:15:18.700Z,51.60
2018-09-20T08:16:19.660Z,51.86
2018-09-20T08:17:19.845Z,52.41
2018-09-20T08:18:20.028Z,52.35
2018-09-20T08:19:20.455Z,51.73
2018-09-20T08:20:20.616Z,51.56
2018-09-20T08:21:20.823Z,52.07
2018-09-20T08:22:21.081Z,51.24
2018-09-20T08:23:21.164Z,50.27
2018-09-20T08:24:22.049Z,49.82
2018-09-20T08:25:22.433Z,49.84
2018-09-20T08:26:23.081Z,49.64
2018-09-20T08:27:23.238Z,50.08
2018-09-20T08:28:23.625Z,49.84
2018-09-20T08:29:23.958Z,49.36
2018-09-20T08:30:24.106Z,49.39
2018-09-20T08:31:24.437Z,48.99
2018-09-20T08:32:24.614Z,48.65
2018-09-20T08:33:25.145Z,49.29
2018-09-20T08:34:25.393Z,48.23
2018-09-20T08:35:25.629Z,48.32
2018-09-20T08:36:25.993Z,47.93
2018-09-20T08:37:26.263Z,48.63
2018-09-20T08:38:25.560Z,48.52
2018-09-20T08:39:26.931Z,48.32
2018-09-20T08:40:27.255Z,47.43
2018-09-20T08:41:27.800Z,47.42
2018-09-20T08:42:28.142Z,47.50
2018-09-20T08:43:28.294Z,47.25
2018-09-20T08:44:28.813Z,47.22
2018-09-20T08:44:36.864Z,46.68
2018-09-20T08:45:38.054Z,46.83
2018-09-20T08:46:38.266Z,46.74
2018-09-20T08:47:38.719Z,47.12
2018-09-20T08:48:38.912Z,47.59
2018-09-20T08:49:39.771Z,47.12
2018-09-20T08:50:40.465Z,46.81
2018-09-20T08:51:40.672Z,47.26
2018-09-20T08:52:40.881Z,48.97
2018-09-20T08:53:41.471Z,49.32
2018-09-20T08:54:41.851Z,49.20
2018-09-20T08:55:42.160Z,49.52
2018-09-20T08:56:42.427Z,49.89
2018-09-20T08:57:41.737Z,50.01
2018-09-20T08:58:43.427Z,49.84
2018-09-20T08:59:43.651Z,49.74
2018-09-20T09:00:43.848Z,50.39
2018-09-20T09:01:44.275Z,50.43
2018-09-20T09:02:45.056Z,50.66
2018-09-20T09:03:45.435Z,51.16
2018-09-20T09:04:45.902Z,50.37
2018-09-20T09:05:46.141Z,49.69
2018-09-20T09:06:46.296Z,49.88
2018-09-20T09:07:46.658Z,49.37
2018-09-20T09:08:46.842Z,49.57
2018-09-20T09:09:47.173Z,49.68
2018-09-20T09:10:47.445Z,49.37
2018-09-20T09:11:47.943Z,49.16
2018-09-20T09:12:47.613Z,49.55
2018-09-20T09:13:49.149Z,50.41
2018-09-20T09:14:49.687Z,50.37
2018-09-20T09:15:50.562Z,50.22
2018-09-20T09:16:50.740Z,51.04
2018-09-20T09:17:51.398Z,51.01
2018-09-20T09:18:51.642Z,51.17
2018-09-20T09:19:51.827Z,51.72
2018-09-20T09:20:52.093Z,52.16
2018-09-20T09:21:52.855Z,52.58
2018-09-20T09:22:53.456Z,52.93
2018-09-20T09:23:53.673Z,53.01
2018-09-20T09:24:54.135Z,52.50
2018-09-20T09:25:54.388Z,52.64
2018-09-20T09:26:54.540Z,52.39
2018-09-20T09:27:55.292Z,52.67
2018-09-20T09:28:55.466Z,52.85
2018-09-20T09:29:03.516Z,53.39
2018-09-20T09:30:04.792Z,53.37
2018-09-20T09:31:04.995Z,53.49
2018-09-20T09:32:05.160Z,54.24
2018-09-20T09:33:05.369Z,54.64
2018-09-20T09:34:05.734Z,54.50
2018-09-20T09:35:04.953Z,54.53
2018-09-20T09:36:06.153Z,54.12
2018-09-20T09:37:06.350Z,54.06
2018-09-20T09:38:06.638Z,54.11
2018-09-20T09:39:06.876Z,54.84
2018-09-20T09:40:07.462Z,54.85
2018-09-20T09:41:07.691Z,54.86
2018-09-20T09:42:08.013Z,54.79
2018-09-20T09:43:07.122Z,54.41
2018-09-20T09:44:08.511Z,54.48
2018-09-20T09:45:09.019Z,54.44
2018-09-20T09:46:09.216Z,53.97
2018-09-20T09:47:10.138Z,54.53
2018-09-20T09:48:10.435Z,55.01
2018-09-20T09:49:09.824Z,55.10
2018-09-20T09:50:11.548Z,55.25
2018-09-20T09:51:12.060Z,55.65
2018-09-20T09:52:12.373Z,55.16
2018-09-20T09:53:12.619Z,55.11
2018-09-20T09:54:12.906Z,55.18
2018-09-20T09:55:12.092Z,54.57
2018-09-20T09:56:13.412Z,54.40
2018-09-20T09:57:13.656Z,54.82
2018-09-20T09:58:13.788Z,55.13
2018-09-20T09:59:14.106Z,55.00
2018-09-20T10:00:14.670Z,54.51
2018-09-20T10:01:14.937Z,54.74
2018-09-20T10:02:15.167Z,55.21
2018-09-20T10:03:15.448Z,55.23
2018-09-20T10:04:15.649Z,55.27
2018-09-20T10:05:15.967Z,55.24
2018-09-20T10:06:16.108Z,55.54
2018-09-20T10:07:16.537Z,55.03
2018-09-20T10:08:16.877Z,55.09
2018-09-20T10:09:17.123Z,54.81
2018-09-20T10:10:17.278Z,54.71
2018-09-20T10:11:17.627Z,54.88
2018-09-20T10:12:17.868Z,54.86
2018-09-20T10:13:18.058Z,54.75
2018-09-20T10:14:18.247Z,54.36
2018-09-20T10:15:18.432Z,55.10
2018-09-20T10:15:26.548Z,54.96
2018-09-20T10:16:27.688Z,54.94
2018-09-20T10:17:28.050Z,54.62
2018-09-20T10:18:28.513Z,54.43
2018-09-20T10:19:28.764Z,54.62
2018-09-20T10:20:29.109Z,54.86
2018-09-20T10:21:29.412Z,54.76
2018-09-20T10:22:29.577Z,54.98
2018-09-20T10:23:29.762Z,55.03
2018-09-20T10:24:30.027Z,54.89
2018-09-20T10:25:30.270Z,54.38
2018-09-20T10:26:30.522Z,54.44
2018-09-20T10:27:30.736Z,54.28
2018-09-20T10:28:31.121Z,54.28
2018-09-20T10:29:31.578Z,53.83
2018-09-20T10:30:31.858Z,54.19
2018-09-20T10:31:31.237Z,53.91
2018-09-20T10:32:31.281Z,53.63
2018-09-20T10:33:32.449Z,53.52
2018-09-20T10:34:32.718Z,53.22
2018-09-20T10:35:32.943Z,53.14
2018-09-20T10:36:33.179Z,53.12
2018-09-20T10:37:33.518Z,53.25
2018-09-20T10:38:33.682Z,53.29
2018-09-20T10:39:33.975Z,53.18
2018-09-20T10:40:34.182Z,53.43
2018-09-20T10:41:34.483Z,53.68
2018-09-20T10:42:34.666Z,53.99
2018-09-20T10:43:34.856Z,53.55
2018-09-20T10:44:35.071Z,54.06
2018-09-20T10:45:35.266Z,53.65
2018-09-20T10:46:35.480Z,53.91
2018-09-20T10:47:35.712Z,54.23
2018-09-20T10:48:36.076Z,54.27
2018-09-20T10:49:36.305Z,54.29
2018-09-20T10:50:36.427Z,53.77
2018-09-20T10:51:36.704Z,53.67
2018-09-20T10:52:36.996Z,53.82
2018-09-20T10:53:37.176Z,53.38
2018-09-20T10:54:37.422Z,52.95
2018-09-20T10:55:36.554Z,53.05
2018-09-20T10:56:37.736Z,52.83
2018-09-20T10:57:38.513Z,52.69
2018-09-20T10:58:38.677Z,52.44
2018-09-20T10:59:38.980Z,52.48
2018-09-20T11:00:39.171Z,52.43
2018-09-20T11:01:39.517Z,51.94
2018-09-20T11:01:47.601Z,51.98
2018-09-20T11:02:48.835Z,51.88
2018-09-20T11:03:49.010Z,51.77
2018-09-20T11:04:49.250Z,51.82
2018-09-20T11:05:49.761Z,51.95
2018-09-20T11:06:50.004Z,51.77
2018-09-20T11:07:50.326Z,52.31
2018-09-20T11:08:49.477Z,52.46
2018-09-20T11:09:51.176Z,52.13
2018-09-20T11:10:51.430Z,51.43
2018-09-20T11:11:50.659Z,51.71
2018-09-20T11:12:52.200Z,52.00
2018-09-20T11:13:52.626Z,52.06
2018-09-20T11:14:52.871Z,52.06
2018-09-20T11:15:53.230Z,51.87
2018-09-20T11:16:53.514Z,52.08
2018-09-20T11:17:53.767Z,51.61
2018-09-20T11:18:53.988Z,51.70
2018-09-20T11:19:54.345Z,51.61
2018-09-20T11:20:54.545Z,51.72
2018-09-20T11:21:54.717Z,50.89
2018-09-20T11:22:54.940Z,50.62
2018-09-20T11:23:55.115Z,51.04
2018-09-20T11:24:55.403Z,51.34
2018-09-20T11:25:55.791Z,51.30
2018-09-20T11:26:55.088Z,51.64
2018-09-20T11:27:56.329Z,51.22
2018-09-20T11:28:56.524Z,51.41
2018-09-20T11:29:56.812Z,50.62
2018-09-20T11:30:56.944Z,51.01
2018-09-20T11:31:57.196Z,51.51
2018-09-20T11:32:57.805Z,51.47
2018-09-20T11:33:57.941Z,51.26
2018-09-20T11:34:58.272Z,50.93
2018-09-20T11:35:58.410Z,50.58
2018-09-20T11:36:59.198Z,50.45
2018-09-20T11:37:59.378Z,50.15
2018-09-20T11:38:59.671Z,50.71
2018-09-20T11:39:59.994Z,50.44
2018-09-20T11:41:00.430Z,50.18
2018-09-20T11:42:00.666Z,49.58
2018-09-20T11:43:00.853Z,50.09
2018-09-20T11:44:01.188Z,50.28
2018-09-20T11:45:01.787Z,50.45
2018-09-20T11:46:02.249Z,50.54
2018-09-20T11:47:02.541Z,50.46
2018-09-20T11:47:11.332Z,50.49
2018-09-20T11:48:12.385Z,50.48
2018-09-20T11:49:13.054Z,50.54
2018-09-20T11:50:13.606Z,50.39
2018-09-20T11:51:12.872Z,50.19
2018-09-20T11:52:14.047Z,50.02
2018-09-20T11:53:14.406Z,49.63
2018-09-20T11:54:14.902Z,49.96
2018-09-20T11:55:15.098Z,50.25
2018-09-20T11:56:15.307Z,49.95
2018-09-20T11:57:15.551Z,49.94
2018-09-20T11:58:15.737Z,49.70
2018-09-20T11:59:15.941Z,50.04
2018-09-20T12:00:16.447Z,49.88
2018-09-20T12:01:16.730Z,49.29
2018-09-20T12:02:16.029Z,49.41
2018-09-20T12:03:17.391Z,49.22
2018-09-20T12:04:17.562Z,49.62
2018-09-20T12:05:17.779Z,49.87
2018-09-20T12:06:17.969Z,49.83
2018-09-20T12:07:18.185Z,49.70
2018-09-20T12:08:18.813Z,49.92
2018-09-20T12:09:18.982Z,49.86
2018-09-20T12:10:19.178Z,49.58
2018-09-20T12:11:19.396Z,49.32
2018-09-20T12:12:19.756Z,49.38
2018-09-20T12:13:20.484Z,48.84
2018-09-20T12:14:20.723Z,48.48
2018-09-20T12:15:19.826Z,48.58
2018-09-20T12:16:21.076Z,48.29
2018-09-20T12:17:21.498Z,48.14
2018-09-20T12:18:22.004Z,47.74
2018-09-20T12:19:22.424Z,47.70
2018-09-20T12:20:23.090Z,48.01
2018-09-20T12:21:23.275Z,48.12
2018-09-20T12:22:23.486Z,47.81
2018-09-20T12:23:23.686Z,47.60
2018-09-20T12:24:23.924Z,47.45
2018-09-20T12:25:24.144Z,47.31
2018-09-20T12:26:24.363Z,46.61
2018-09-20T12:27:24.705Z,46.72
2018-09-20T12:28:25.319Z,46.67
2018-09-20T12:29:24.734Z,46.49
2018-09-20T12:30:26.490Z,46.56
2018-09-20T12:31:26.986Z,46.73
2018-09-20T12:32:26.868Z,46.53
2018-09-20T12:33:28.163Z,46.50
2018-09-20T12:34:28.731Z,46.09
2018-09-20T12:34:37.072Z,46.55
2018-09-20T12:35:38.543Z,46.46
2018-09-20T12:36:37.800Z,46.66
2018-09-20T12:37:38.990Z,46.71
2018-09-20T12:38:39.556Z,46.82
2018-09-20T12:39:40.136Z,46.40
2018-09-20T12:40:40.735Z,46.04
2018-09-20T12:41:41.266Z,46.56
2018-09-20T12:42:42.143Z,46.06